Time;durP1;ratioP1;P1;durP2;ratioP2;P2;SDS_P1;SDS_P2;PMS_P1;PMS_P2;Temp;Humidity;BMP_temperature;BMP_pressure;BME280_temperature;BME280_humidity;BME280_pressure;Samples;Min_cycle;Max_cycle;Signal;HPM_P1;HPM_P2
2022/10/22 00:01:01;;;;;;;0.10;0.10;;;;;;;11.58;100.00;100829.38;5027995;28;20527;-71
2022/10/22 00:03:26;;;;;;;0.10;0.10;;;;;;;11.89;100.00;100859.94;5054320;28;20118;-71
2022/10/22 00:05:52;;;;;;;0.10;0.10;;;;;;;11.96;100.00;100860.28;5059599;28;20079;-70
2022/10/22 00:08:17;;;;;;;0.10;0.10;;;;;;;11.87;100.00;100843.06;5059111;28;20123;-71
2022/10/22 00:10:42;;;;;;;0.10;0.10;;;;;;;11.97;100.00;100859.31;5046543;28;20048;-70
2022/10/22 00:13:09;;;;;;;0.05;0.05;;;;;;;11.93;100.00;100857.84;5064077;28;20547;-70
2022/10/22 00:15:34;;;;;;;0.00;0.00;;;;;;;11.89;100.00;100856.41;5039606;28;20024;-71
2022/10/22 00:17:59;;;;;;;0.10;0.10;;;;;;;11.80;100.00;100853.50;5041258;28;20102;-70
2022/10/22 00:20:24;;;;;;;0.10;0.10;;;;;;;11.77;100.00;100843.00;5062520;28;20104;-70
2022/10/22 00:22:50;;;;;;;0.10;0.10;;;;;;;11.76;100.00;100851.19;5060228;28;20032;-71
2022/10/22 00:25:15;;;;;;;0.10;0.10;;;;;;;11.76;100.00;100862.81;5063847;28;20384;-71
2022/10/22 00:27:40;;;;;;;0.10;0.10;;;;;;;11.66;100.00;100854.63;5060864;28;20071;-71
2022/10/22 00:30:06;;;;;;;0.05;0.05;;;;;;;11.72;100.00;100861.34;5060244;28;20074;-71
2022/10/22 00:32:32;;;;;;;0.13;0.13;;;;;;;11.78;100.00;100860.00;5059566;28;20078;-71
2022/10/22 00:34:57;;;;;;;0.10;0.10;;;;;;;11.81;100.00;100846.28;5058811;28;20070;-71
2022/10/22 00:37:22;;;;;;;0.00;0.00;;;;;;;11.96;100.00;100861.16;5043499;28;20138;-71
2022/10/22 00:39:48;;;;;;;0.10;0.10;;;;;;;12.01;100.00;100860.78;5057907;28;20424;-71
2022/10/22 00:42:22;;;;;;;0.10;0.10;;;;;;;12.02;100.00;100861.66;5058590;28;20820;-71
2022/10/22 00:45:16;;;;;;;0.10;0.10;;;;;;;11.82;100.00;100839.91;5055222;28;20217;-71
2022/10/22 00:47:53;;;;;;;0.10;0.10;;;;;;;11.88;100.00;100871.69;5044507;28;20032;-71
2022/10/22 00:50:24;;;;;;;0.10;0.10;;;;;;;11.71;100.00;100859.63;5057128;28;20033;-71
2022/10/22 00:52:49;;;;;;;0.10;0.10;;;;;;;11.52;100.00;100858.47;5057447;28;20028;-71
2022/10/22 00:55:15;;;;;;;0.10;0.10;;;;;;;11.58;100.00;100872.38;5058091;28;20033;-71
2022/10/22 00:57:41;;;;;;;0.10;0.10;;;;;;;11.57;100.00;100874.22;5045684;28;20024;-71
2022/10/22 01:00:07;;;;;;;0.10;0.10;;;;;;;11.55;100.00;100871.66;5063283;28;20029;-71
2022/10/22 01:02:32;;;;;;;0.10;0.10;;;;;;;11.38;100.00;100848.00;5058473;28;20537;-70
2022/10/22 01:04:57;;;;;;;0.00;0.00;;;;;;;11.48;100.00;100873.13;5058265;28;20044;-71
2022/10/22 01:07:23;;;;;;;0.03;0.03;;;;;;;11.33;100.00;100861.78;5060774;28;20747;-70
2022/10/22 01:10:06;;;;;;;0.10;0.10;;;;;;;11.37;100.00;100874.00;5044187;28;20032;-71
2022/10/22 01:12:53;;;;;;;0.00;0.00;;;;;;;11.27;100.00;100864.97;5038300;28;20043;-71
2022/10/22 01:15:36;;;;;;;0.10;0.10;;;;;;;11.18;100.00;100857.66;5056555;28;20037;-71
2022/10/22 01:18:06;;;;;;;0.10;0.10;;;;;;;11.18;100.00;100858.50;5037653;28;20326;-71
2022/10/22 01:20:37;;;;;;;0.00;0.00;;;;;;;11.16;100.00;100871.19;5026453;28;20039;-71
2022/10/22 01:23:27;;;;;;;0.10;0.10;;;;;;;11.02;100.00;100874.97;5055734;28;20040;-71
2022/10/22 01:26:02;;;;;;;0.10;0.10;;;;;;;10.63;100.00;100874.47;5060225;28;20112;-70
2022/10/22 01:28:57;;;;;;;0.10;0.10;;;;;;;10.31;100.00;100867.03;5040708;28;20029;-70
2022/10/22 01:31:24;;;;;;;0.00;0.00;;;;;;;10.45;100.00;100874.94;5043151;28;20024;-70
2022/10/22 01:33:52;;;;;;;0.10;0.10;;;;;;;10.41;100.00;100848.41;5042794;28;20037;-70
2022/10/22 01:36:18;;;;;;;0.00;0.00;;;;;;;10.33;100.00;100840.94;5042447;28;20021;-70
2022/10/22 01:38:44;;;;;;;0.20;0.10;;;;;;;10.30;100.00;100860.81;5038877;28;20484;-70
2022/10/22 01:41:09;;;;;;;0.10;0.10;;;;;;;10.03;100.00;100844.97;5031987;28;20507;-71
2022/10/22 01:43:35;;;;;;;0.10;0.10;;;;;;;10.20;100.00;100868.69;5055776;28;20028;-71
2022/10/22 01:46:03;;;;;;;0.10;0.10;;;;;;;10.25;100.00;100848.69;5065006;28;20060;-70
2022/10/22 01:49:07;;;;;;;0.10;0.10;;;;;;;10.44;100.00;100862.47;5045398;28;20029;-70
2022/10/22 01:51:54;;;;;;;0.00;0.00;;;;;;;10.41;100.00;100861.84;5065212;28;20502;-71
2022/10/22 01:55:07;;;;;;;0.10;0.10;;;;;;;10.44;100.00;100857.09;5061121;28;20697;-71
2022/10/22 01:57:46;;;;;;;0.10;0.10;;;;;;;10.42;100.00;100832.22;5018895;28;20229;-70
2022/10/22 02:00:13;;;;;;;0.10;0.10;;;;;;;10.61;100.00;100853.09;5056211;28;20028;-70
2022/10/22 02:02:45;;;;;;;0.00;0.00;;;;;;;10.63;100.00;100859.19;5043588;28;20040;-70
2022/10/22 02:05:21;;;;;;;0.10;0.10;;;;;;;10.67;100.00;100854.47;5059171;28;20115;-70
2022/10/22 02:07:50;;;;;;;0.10;0.10;;;;;;;10.47;100.00;100824.63;5044336;28;20055;-70
2022/10/22 02:10:16;;;;;;;0.10;0.10;;;;;;;10.65;100.00;100849.19;5043386;28;20055;-70
2022/10/22 02:12:42;;;;;;;0.10;0.10;;;;;;;10.71;100.00;100850.56;5044581;28;20021;-70
2022/10/22 02:15:09;;;;;;;0.10;0.10;;;;;;;10.79;100.00;100853.47;5041503;28;20495;-70
2022/10/22 02:17:35;;;;;;;0.10;0.10;;;;;;;10.81;100.00;100848.00;5059317;28;20776;-70
2022/10/22 02:20:11;;;;;;;0.10;0.10;;;;;;;10.88;100.00;100849.22;5057274;28;20028;-70
2022/10/22 02:22:36;;;;;;;0.00;0.00;;;;;;;10.77;100.00;100822.38;5060440;28;20086;-72
2022/10/22 02:25:03;;;;;;;0.10;0.10;;;;;;;10.95;100.00;100842.38;5061555;28;21897;-72
2022/10/22 02:27:36;;;;;;;0.10;0.10;;;;;;;10.83;100.00;100850.56;5045316;28;20037;-72
2022/10/22 02:30:02;;;;;;;0.13;0.13;;;;;;;10.63;100.00;100848.47;5057406;28;20032;-72
2022/10/22 02:32:32;;;;;;;0.20;0.20;;;;;;;10.42;100.00;100850.13;5054645;28;20076;-71
2022/10/22 02:34:58;;;;;;;1.70;1.60;;;;;;;10.36;100.00;100848.75;5042011;28;20273;-71
2022/10/22 02:37:24;;;;;;;0.20;0.20;;;;;;;10.15;100.00;100836.00;5040212;28;20025;-72
2022/10/22 02:39:50;;;;;;;0.13;0.13;;;;;;;10.24;100.00;100849.69;5044132;28;20048;-71
2022/10/22 02:42:17;;;;;;;0.08;0.08;;;;;;;10.34;100.00;100845.31;5042767;28;20120;-72
2022/10/22 02:44:42;;;;;;;0.10;0.10;;;;;;;10.10;100.00;100813.16;5038998;28;20142;-71
2022/10/22 02:47:08;;;;;;;0.10;0.10;;;;;;;10.19;100.00;100844.66;5043864;28;20395;-72
2022/10/22 02:49:33;;;;;;;0.10;0.10;;;;;;;10.05;100.00;100848.41;5042362;28;20105;-72
2022/10/22 02:51:58;;;;;;;0.10;0.10;;;;;;;10.03;100.00;100848.53;5057932;28;20139;-72
2022/10/22 02:54:23;;;;;;;0.10;0.10;;;;;;;9.95;100.00;100845.56;5059619;28;20048;-71
2022/10/22 02:56:49;;;;;;;0.10;0.10;;;;;;;9.93;100.00;100846.66;5039762;28;20082;-71
2022/10/22 02:59:14;;;;;;;0.00;0.00;;;;;;;9.96;100.00;100836.53;5043108;28;20060;-72
2022/10/22 03:01:39;;;;;;;0.10;0.10;;;;;;;10.01;100.00;100838.88;5042144;28;20025;-71
2022/10/22 03:04:05;;;;;;;0.10;0.10;;;;;;;9.99;100.00;100824.72;5042552;28;20397;-72
2022/10/22 03:06:30;;;;;;;0.20;0.20;;;;;;;10.01;100.00;100842.41;5042172;28;20037;-71
2022/10/22 03:08:55;;;;;;;0.10;0.10;;;;;;;9.99;100.00;100864.94;5042114;28;20499;-72
2022/10/22 03:11:23;;;;;;;0.10;0.10;;;;;;;10.00;100.00;100861.28;5040937;28;21048;-72
2022/10/22 03:13:49;;;;;;;0.10;0.10;;;;;;;10.02;100.00;100860.22;5042725;28;20025;-71
2022/10/22 03:16:14;;;;;;;0.10;0.10;;;;;;;10.07;100.00;100851.81;5042968;28;20036;-72
2022/10/22 03:18:39;;;;;;;0.10;0.10;;;;;;;10.03;100.00;100828.88;5058759;28;20047;-71
2022/10/22 03:21:28;;;;;;;0.10;0.10;;;;;;;10.29;100.00;100847.50;5056848;28;20028;-72
2022/10/22 03:23:54;;;;;;;0.10;0.10;;;;;;;10.03;100.00;100828.88;5038910;28;20032;-71
2022/10/22 03:26:19;;;;;;;0.00;0.00;;;;;;;10.11;100.00;100858.69;5041993;28;20610;-72
2022/10/22 03:28:47;;;;;;;0.10;0.10;;;;;;;10.10;100.00;100861.44;5059352;28;20024;-72
2022/10/22 03:31:12;;;;;;;0.10;0.10;;;;;;;10.23;100.00;100866.75;5040713;28;20151;-72
2022/10/22 03:33:37;;;;;;;0.10;0.10;;;;;;;10.49;100.00;100870.16;5059431;28;20024;-72
2022/10/22 03:36:03;;;;;;;0.10;0.10;;;;;;;10.49;100.00;100851.38;5038690;28;20064;-72
2022/10/22 03:38:29;;;;;;;0.17;0.10;;;;;;;10.56;100.00;100839.19;5036474;28;20093;-72
2022/10/22 03:40:54;;;;;;;0.10;0.10;;;;;;;10.79;100.00;100872.28;5060449;28;20028;-73
2022/10/22 03:43:19;;;;;;;0.10;0.10;;;;;;;10.72;100.00;100848.72;5043016;28;20101;-72
2022/10/22 03:45:45;;;;;;;0.10;0.10;;;;;;;10.95;100.00;100873.78;5059310;28;20029;-72
2022/10/22 03:48:10;;;;;;;0.10;0.10;;;;;;;10.84;100.00;100842.41;5036703;28;20796;-72
2022/10/22 03:50:35;;;;;;;0.10;0.10;;;;;;;10.87;100.00;100847.50;5041460;28;20029;-72
2022/10/22 03:53:01;;;;;;;0.10;0.10;;;;;;;10.93;100.00;100865.00;5056622;28;20067;-73
2022/10/22 03:55:26;;;;;;;0.10;0.10;;;;;;;10.93;100.00;100863.13;5029402;28;20048;-72
2022/10/22 03:57:52;;;;;;;0.10;0.10;;;;;;;11.12;100.00;100885.88;5049821;28;20108;-72
2022/10/22 04:00:17;;;;;;;0.10;0.10;;;;;;;10.88;100.00;100854.59;5038328;28;20024;-73
2022/10/22 04:02:42;;;;;;;0.10;0.10;;;;;;;11.07;100.00;100874.63;5038362;28;20025;-73
2022/10/22 04:05:08;;;;;;;0.10;0.10;;;;;;;11.17;100.00;100886.34;5055397;28;20488;-72
2022/10/22 04:07:33;;;;;;;0.10;0.10;;;;;;;11.27;100.00;100889.16;5045343;28;20124;-72
2022/10/22 04:09:59;;;;;;;0.10;0.10;;;;;;;11.30;100.00;100878.16;5051525;28;20040;-72
2022/10/22 04:12:24;;;;;;;0.10;0.10;;;;;;;11.27;100.00;100894.53;5041259;28;20051;-72
2022/10/22 04:14:49;;;;;;;0.10;0.10;;;;;;;11.09;100.00;100870.84;5042107;28;20073;-72
2022/10/22 04:17:15;;;;;;;0.10;0.10;;;;;;;11.38;100.00;100886.47;5046093;28;20024;-72
2022/10/22 04:19:40;;;;;;;0.10;0.10;;;;;;;11.29;100.00;100895.25;5061420;28;20094;-72
2022/10/22 04:22:05;;;;;;;0.10;0.10;;;;;;;11.26;100.00;100911.63;5037538;28;20040;-73
2022/10/22 04:24:31;;;;;;;0.10;0.10;;;;;;;11.14;100.00;100891.13;5044732;28;20070;-72
2022/10/22 04:26:56;;;;;;;0.10;0.10;;;;;;;11.14;100.00;100897.34;5062621;28;20034;-72
2022/10/22 04:29:22;;;;;;;0.10;0.10;;;;;;;11.02;100.00;100892.94;5057552;28;20039;-72
2022/10/22 04:31:47;;;;;;;0.10;0.10;;;;;;;10.90;100.00;100913.56;5038879;28;20056;-72
2022/10/22 04:34:13;;;;;;;0.10;0.10;;;;;;;10.73;100.00;100888.88;5025690;28;20131;-72
2022/10/22 04:36:38;;;;;;;0.10;0.10;;;;;;;10.85;100.00;100884.41;5043185;28;20124;-72
2022/10/22 04:39:04;;;;;;;0.20;0.20;;;;;;;11.04;100.00;100902.59;5041777;28;20040;-73
2022/10/22 04:41:32;;;;;;;0.00;0.00;;;;;;;11.20;100.00;100898.69;5025796;28;20029;-72
2022/10/22 04:43:58;;;;;;;0.10;0.10;;;;;;;11.29;100.00;100900.63;5044599;28;20052;-71
2022/10/22 04:46:25;;;;;;;0.10;0.10;;;;;;;11.28;100.00;100909.69;5043148;28;20028;-72
2022/10/22 04:48:51;;;;;;;0.10;0.10;;;;;;;11.28;100.00;100896.25;5035536;28;20028;-72
2022/10/22 04:51:18;;;;;;;0.10;0.10;;;;;;;11.25;100.00;100907.25;5055662;28;20455;-72
2022/10/22 04:53:44;;;;;;;0.10;0.10;;;;;;;11.26;100.00;100900.88;5041686;28;20089;-72
2022/10/22 04:56:12;;;;;;;0.10;0.10;;;;;;;11.21;100.00;100898.56;5038856;28;20028;-72
2022/10/22 04:58:37;;;;;;;0.10;0.10;;;;;;;11.21;100.00;100905.78;5037059;28;20404;-71
2022/10/22 05:01:16;;;;;;;0.10;0.10;;;;;;;11.28;100.00;100909.69;5041929;28;20040;-72
2022/10/22 05:03:42;;;;;;;0.20;0.20;;;;;;;11.24;100.00;100916.31;5024548;28;20020;-72
2022/10/22 05:06:08;;;;;;;0.10;0.10;;;;;;;11.24;100.00;100921.69;5060243;28;20531;-72
2022/10/22 05:08:33;;;;;;;0.10;0.10;;;;;;;11.20;100.00;100920.19;5031328;28;20028;-71
2022/10/22 05:10:58;;;;;;;0.10;0.10;;;;;;;11.10;100.00;100920.09;5041440;28;20032;-72
2022/10/22 05:13:24;;;;;;;0.13;0.13;;;;;;;10.91;100.00;100912.59;5040176;28;20116;-70
2022/10/22 05:15:49;;;;;;;0.10;0.10;;;;;;;11.05;100.00;100925.78;5037923;28;20033;-71
2022/10/22 05:18:14;;;;;;;0.10;0.10;;;;;;;11.10;100.00;100918.22;5045009;28;20056;-70
2022/10/22 05:20:41;;;;;;;0.10;0.10;;;;;;;11.16;100.00;100922.25;5029054;28;20097;-70
2022/10/22 05:23:06;;;;;;;0.10;0.10;;;;;;;11.08;100.00;100898.69;5039650;28;20031;-70
2022/10/22 05:25:35;;;;;;;0.10;0.10;;;;;;;10.99;100.00;100883.28;5040054;28;20025;-71
2022/10/22 05:28:01;;;;;;;0.10;0.10;;;;;;;11.20;100.00;100915.66;5063965;28;20039;-69
2022/10/22 05:30:26;;;;;;;0.10;0.10;;;;;;;11.19;100.00;100913.13;5061053;28;20021;-71
2022/10/22 05:32:51;;;;;;;0.20;0.20;;;;;;;11.16;100.00;100911.50;5060957;28;20056;-70
2022/10/22 05:35:17;;;;;;;0.10;0.10;;;;;;;11.28;100.00;100920.44;5048341;28;20098;-71
2022/10/22 05:37:42;;;;;;;0.10;0.10;;;;;;;11.31;100.00;100922.88;5062731;28;20106;-71
2022/10/22 05:40:08;;;;;;;0.10;0.10;;;;;;;11.39;100.00;100927.63;5061748;28;20036;-71
2022/10/22 05:42:33;;;;;;;0.10;0.10;;;;;;;11.42;100.00;100926.53;5045444;28;20123;-72
2022/10/22 05:44:58;;;;;;;0.20;0.20;;;;;;;11.37;100.00;100925.09;5058811;28;20025;-72
2022/10/22 05:47:24;;;;;;;0.10;0.10;;;;;;;11.24;100.00;100925.19;5058563;28;20098;-71
2022/10/22 05:49:49;;;;;;;0.10;0.10;;;;;;;11.32;100.00;100927.28;5056273;28;20532;-71
2022/10/22 05:52:14;;;;;;;0.10;0.10;;;;;;;11.51;100.00;100928.50;5040687;28;20032;-72
2022/10/22 05:54:40;;;;;;;0.10;0.10;;;;;;;11.52;100.00;100946.34;5044471;28;20032;-72
2022/10/22 05:57:05;;;;;;;0.10;0.10;;;;;;;11.49;100.00;100939.38;5056729;28;20055;-72
2022/10/22 05:59:30;;;;;;;0.10;0.10;;;;;;;11.44;100.00;100935.34;5055031;28;20084;-72
2022/10/22 06:01:56;;;;;;;0.10;0.10;;;;;;;11.57;100.00;100938.75;5035699;28;20028;-72
2022/10/22 06:04:21;;;;;;;0.10;0.10;;;;;;;11.54;100.00;100945.25;5035512;28;20497;-71
2022/10/22 06:06:48;;;;;;;0.10;0.10;;;;;;;11.61;100.00;100952.81;5033388;28;20060;-72
2022/10/22 06:09:18;;;;;;;0.20;0.20;;;;;;;11.76;100.00;100954.25;5042504;28;20037;-73
2022/10/22 06:11:45;;;;;;;0.03;0.03;;;;;;;11.62;100.00;100957.22;5053907;28;20037;-72
2022/10/22 06:14:10;;;;;;;0.10;0.10;;;;;;;11.68;100.00;100943.25;5035629;28;20024;-73
2022/10/22 06:16:36;;;;;;;0.10;0.10;;;;;;;11.55;100.00;100943.38;5055416;28;20060;-72
2022/10/22 06:19:02;;;;;;;0.10;0.10;;;;;;;11.67;100.00;100955.00;5058021;28;20037;-72
2022/10/22 06:21:27;;;;;;;0.13;0.13;;;;;;;11.73;100.00;100962.56;5025525;28;20056;-73
2022/10/22 06:23:55;;;;;;;0.10;0.10;;;;;;;11.77;100.00;100977.50;5054134;28;20957;-72
2022/10/22 06:26:21;;;;;;;0.13;0.13;;;;;;;11.70;100.00;100966.38;5042383;28;20910;-72
2022/10/22 06:28:46;;;;;;;0.10;0.10;;;;;;;11.65;100.00;100949.75;5039441;28;20151;-72
2022/10/22 06:31:12;;;;;;;0.10;0.10;;;;;;;12.04;100.00;100992.41;5040971;28;20028;-71
2022/10/22 06:33:41;;;;;;;0.10;0.10;;;;;;;11.97;100.00;100977.69;5038220;28;20024;-72
2022/10/22 06:36:11;;;;;;;0.10;0.10;;;;;;;11.74;100.00;100972.34;5039203;28;20028;-71
2022/10/22 06:38:36;;;;;;;0.10;0.10;;;;;;;11.82;100.00;100990.56;5031305;28;20031;-71
2022/10/22 06:41:07;;;;;;;0.10;0.10;;;;;;;11.92;100.00;101007.69;5036407;28;20029;-72
2022/10/22 06:43:33;;;;;;;0.10;0.10;;;;;;;11.81;100.00;101018.44;5054644;28;20055;-71
2022/10/22 06:46:00;;;;;;;0.10;0.10;;;;;;;11.92;100.00;101023.81;5043838;28;20685;-72
2022/10/22 06:48:25;;;;;;;0.20;0.20;;;;;;;11.89;100.00;101010.63;5054410;28;20036;-72
2022/10/22 06:50:50;;;;;;;0.15;0.15;;;;;;;11.99;100.00;101022.38;5024047;28;20384;-74
2022/10/22 06:53:16;;;;;;;0.20;0.20;;;;;;;12.04;100.00;101024.69;5053899;28;20484;-73
2022/10/22 06:55:41;;;;;;;0.20;0.20;;;;;;;12.10;100.00;101026.03;5038494;28;20068;-72
2022/10/22 06:58:06;;;;;;;0.10;0.10;;;;;;;12.16;100.00;101033.59;5055009;28;20098;-72
2022/10/22 07:00:32;;;;;;;0.10;0.10;;;;;;;12.11;100.00;101023.22;5036481;28;20028;-73
2022/10/22 07:02:58;;;;;;;0.10;0.10;;;;;;;12.21;100.00;101034.09;5038934;28;20360;-72
2022/10/22 07:05:23;;;;;;;0.20;0.20;;;;;;;12.33;100.00;101051.06;5059586;28;20040;-71
2022/10/22 07:07:49;;;;;;;0.20;0.20;;;;;;;12.33;100.00;101040.31;5041448;28;20059;-73
2022/10/22 07:10:14;;;;;;;0.10;0.10;;;;;;;12.27;100.00;101030.03;5038215;28;20028;-73
2022/10/22 07:12:39;;;;;;;0.10;0.10;;;;;;;12.43;100.00;101051.16;5038218;28;20123;-73
2022/10/22 07:15:05;;;;;;;0.10;0.10;;;;;;;12.35;100.00;101046.41;5056160;28;22000;-73
2022/10/22 07:17:30;;;;;;;0.15;0.15;;;;;;;12.48;100.00;101054.34;5041832;28;20169;-72
2022/10/22 07:19:56;;;;;;;0.10;0.10;;;;;;;12.48;100.00;101051.66;5054108;28;20031;-73
2022/10/22 07:22:21;;;;;;;0.10;0.10;;;;;;;12.47;100.00;101035.59;5038036;28;20040;-75
2022/10/22 07:24:46;;;;;;;0.20;0.20;;;;;;;12.57;100.00;101066.19;5038576;28;20083;-72
2022/10/22 07:27:12;;;;;;;0.10;0.10;;;;;;;12.45;100.00;101074.28;5043853;28;20174;-72
2022/10/22 07:29:37;;;;;;;0.20;0.20;;;;;;;12.60;100.00;101084.78;5042321;28;20056;-72
2022/10/22 07:32:02;;;;;;;0.10;0.10;;;;;;;12.37;100.00;101049.84;5058235;28;20123;-71
2022/10/22 07:34:28;;;;;;;0.13;0.13;;;;;;;12.47;100.00;101074.16;5039808;28;20056;-72
2022/10/22 07:36:53;;;;;;;0.10;0.10;;;;;;;12.67;100.00;101079.75;5036274;28;20543;-71
2022/10/22 07:39:18;;;;;;;0.10;0.10;;;;;;;12.67;100.00;101083.31;5055207;28;20138;-75
2022/10/22 07:41:44;;;;;;;0.15;0.15;;;;;;;12.76;100.00;101092.44;5054166;28;20051;-71
2022/10/22 07:44:09;;;;;;;0.15;0.15;;;;;;;12.92;100.00;101088.47;5057237;28;20052;-72
2022/10/22 07:46:34;;;;;;;0.10;0.10;;;;;;;12.89;100.00;101094.97;5056686;28;20130;-72
2022/10/22 07:49:00;;;;;;;0.10;0.10;;;;;;;12.89;100.00;101076.97;5056156;28;20064;-72
2022/10/22 07:51:25;;;;;;;0.10;0.10;;;;;;;13.11;100.00;101099.41;5052808;28;20103;-74
2022/10/22 07:53:51;;;;;;;0.10;0.10;;;;;;;13.01;100.00;101075.06;5051699;28;20024;-72
2022/10/22 07:56:16;;;;;;;0.10;0.10;;;;;;;13.07;100.00;101089.00;5039196;28;20106;-73
2022/10/22 07:58:41;;;;;;;0.10;0.10;;;;;;;13.17;100.00;101084.56;5053084;28;20066;-71
2022/10/22 08:01:07;;;;;;;0.10;0.10;;;;;;;13.18;100.00;101094.38;5035764;28;20715;-73
2022/10/22 08:03:32;;;;;;;0.10;0.10;;;;;;;13.34;100.00;101118.19;5034457;28;20032;-73
2022/10/22 08:05:58;;;;;;;0.10;0.10;;;;;;;13.56;100.00;101117.22;5035893;28;20047;-76
2022/10/22 08:08:25;;;;;;;0.10;0.10;;;;;;;13.64;100.00;101112.00;5036589;28;20021;-69
2022/10/22 08:10:54;;;;;;;0.10;0.10;;;;;;;13.92;100.00;101122.22;5051038;28;20032;-70
2022/10/22 08:13:19;;;;;;;0.13;0.13;;;;;;;14.02;100.00;101115.03;5050499;28;20032;-70
2022/10/22 08:15:45;;;;;;;0.10;0.10;;;;;;;14.23;100.00;101135.72;5051177;28;20094;-70
2022/10/22 08:18:11;;;;;;;0.10;0.10;;;;;;;14.37;100.00;101121.00;5054622;28;20024;-69
2022/10/22 08:20:37;;;;;;;0.10;0.10;;;;;;;14.33;100.00;101111.44;5030962;28;20032;-72
2022/10/22 08:23:03;;;;;;;0.10;0.10;;;;;;;14.45;100.00;101141.91;5051696;28;20317;-70
2022/10/22 08:25:28;;;;;;;0.10;0.10;;;;;;;14.69;100.00;101131.66;5034166;28;20040;-71
2022/10/22 08:27:53;;;;;;;0.10;0.10;;;;;;;14.75;100.00;101140.16;5054700;28;20099;-71
2022/10/22 08:30:19;;;;;;;0.10;0.10;;;;;;;14.64;100.00;101114.97;5050741;28;20081;-73
2022/10/22 08:32:44;;;;;;;0.10;0.10;;;;;;;14.80;100.00;101140.59;5054595;28;20035;-69
2022/10/22 08:35:10;;;;;;;0.10;0.10;;;;;;;14.76;100.00;101147.28;5054040;28;20157;-70
2022/10/22 08:37:35;;;;;;;0.10;0.10;;;;;;;14.87;100.00;101149.00;5053025;28;20025;-70
2022/10/22 08:40:01;;;;;;;0.10;0.10;;;;;;;14.70;100.00;101146.84;5036953;28;20036;-70
2022/10/22 08:42:38;;;;;;;0.10;0.10;;;;;;;14.72;100.00;101162.06;5055444;28;20806;-72
2022/10/22 08:45:23;;;;;;;0.10;0.10;;;;;;;14.98;100.00;101159.69;5050147;28;20175;-72
2022/10/22 08:47:53;;;;;;;0.10;0.10;;;;;;;15.07;100.00;101171.50;5037459;28;20025;-75
2022/10/22 08:50:26;;;;;;;0.10;0.10;;;;;;;15.17;100.00;101160.69;5036322;28;20028;-70
2022/10/22 08:52:56;;;;;;;0.00;0.00;;;;;;;15.21;100.00;101159.44;5025536;28;20037;-73
2022/10/22 08:55:22;;;;;;;0.10;0.10;;;;;;;15.43;100.00;101175.34;5049978;28;20127;-73
2022/10/22 08:57:52;;;;;;;0.10;0.10;;;;;;;15.52;100.00;101186.34;5033512;28;20049;-73
2022/10/22 09:00:30;;;;;;;0.10;0.10;;;;;;;15.43;100.00;101190.75;5013986;28;20029;-74
2022/10/22 09:03:00;;;;;;;0.15;0.10;;;;;;;15.45;100.00;101196.88;5018193;28;20368;-71
2022/10/22 09:05:44;;;;;;;0.10;0.10;;;;;;;15.44;100.00;101190.59;5050633;28;20036;-72
2022/10/22 09:08:11;;;;;;;0.10;0.10;;;;;;;15.42;100.00;101189.88;5046265;28;20035;-70
2022/10/22 09:10:42;;;;;;;0.10;0.10;;;;;;;15.37;100.00;101189.44;5053094;28;20025;-71
2022/10/22 09:13:10;;;;;;;0.10;0.10;;;;;;;15.55;100.00;101205.00;5032938;28;20487;-70
2022/10/22 09:15:37;;;;;;;0.00;0.00;;;;;;;15.44;100.00;101198.72;5049726;28;20040;-70
2022/10/22 09:18:15;;;;;;;0.10;0.10;;;;;;;15.48;100.00;101204.72;5021846;28;20028;-70
2022/10/22 09:20:48;;;;;;;0.10;0.10;;;;;;;15.51;100.00;101198.16;5032907;28;20082;-71
2022/10/22 09:23:16;;;;;;;0.10;0.10;;;;;;;15.58;100.00;101205.53;5051647;28;20025;-68
2022/10/22 09:25:43;;;;;;;0.10;0.10;;;;;;;15.39;100.00;101186.63;5053832;28;20041;-72
2022/10/22 09:28:09;;;;;;;0.10;0.10;;;;;;;15.48;100.00;101209.25;5053390;28;20032;-72
2022/10/22 09:30:37;;;;;;;0.00;0.00;;;;;;;15.51;100.00;101217.09;5052028;28;20361;-69
2022/10/22 09:33:05;;;;;;;0.10;0.10;;;;;;;15.33;100.00;101214.25;5051626;28;20119;-71
2022/10/22 09:35:53;;;;;;;0.00;0.00;;;;;;;15.08;100.00;101190.31;5052923;28;20028;-70
2022/10/22 09:38:20;;;;;;;0.10;0.10;;;;;;;15.23;100.00;101208.81;5049280;28;20551;-71
2022/10/22 09:40:49;;;;;;;0.10;0.10;;;;;;;15.20;100.00;101231.63;5032377;28;20721;-70
2022/10/22 09:43:14;;;;;;;0.10;0.10;;;;;;;15.15;100.00;101225.75;5037853;28;20468;-73
2022/10/22 09:45:41;;;;;;;0.10;0.10;;;;;;;15.17;100.00;101233.72;5037830;28;20054;-72
2022/10/22 09:48:18;;;;;;;0.10;0.10;;;;;;;15.27;100.00;101240.00;5052934;28;20792;-70
2022/10/22 09:50:46;;;;;;;0.00;0.00;;;;;;;15.12;100.00;101221.47;5051040;28;20028;-70
2022/10/22 09:53:21;;;;;;;0.10;0.10;;;;;;;15.28;100.00;101242.56;5055173;28;20028;-71
2022/10/22 09:55:53;;;;;;;0.10;0.10;;;;;;;15.30;100.00;101239.72;5036073;28;20056;-72
2022/10/22 09:58:18;;;;;;;0.10;0.10;;;;;;;15.28;100.00;101242.56;5054261;28;20028;-71
2022/10/22 10:00:46;;;;;;;0.10;0.10;;;;;;;15.40;100.00;101258.69;5057622;28;20081;-70
2022/10/22 10:03:22;;;;;;;0.03;0.03;;;;;;;15.53;100.00;101255.69;5026497;28;20024;-71
2022/10/22 10:05:51;;;;;;;0.10;0.10;;;;;;;15.55;100.00;101267.22;5057000;28;20165;-71
2022/10/22 10:08:17;;;;;;;0.10;0.10;;;;;;;15.58;100.00;101261.53;5024378;28;20808;-69
2022/10/22 10:10:49;;;;;;;0.10;0.10;;;;;;;15.41;100.00;101258.53;5053473;28;20032;-74
2022/10/22 10:13:39;;;;;;;0.10;0.10;;;;;;;15.60;100.00;101270.38;5033230;28;20028;-69
2022/10/22 10:16:40;;;;;;;0.00;0.00;;;;;;;15.75;100.00;101276.22;5051725;28;20594;-69
2022/10/22 10:19:12;;;;;;;0.10;0.10;;;;;;;15.58;100.00;101284.03;5050491;28;20035;-70
2022/10/22 10:22:06;;;;;;;0.10;0.10;;;;;;;15.59;100.00;101280.31;5023930;28;20025;-71
2022/10/22 10:24:31;;;;;;;0.10;0.10;;;;;;;15.63;100.00;101282.75;5037478;28;20147;-71
2022/10/22 10:27:31;;;;;;;0.10;0.10;;;;;;;15.69;100.00;101284.91;5039098;28;20032;-71
2022/10/22 10:30:02;;;;;;;0.10;0.10;;;;;;;15.77;100.00;101285.03;5053058;28;20038;-71
2022/10/22 10:33:01;;;;;;;0.20;0.20;;;;;;;15.72;100.00;101271.94;5054160;28;20032;-68
2022/10/22 10:35:48;;;;;;;0.10;0.10;;;;;;;16.31;100.00;101292.69;5029718;28;20039;-69
2022/10/22 10:38:19;;;;;;;0.00;0.00;;;;;;;16.67;100.00;101294.75;5024728;28;20040;-68
2022/10/22 10:40:50;;;;;;;0.10;0.10;;;;;;;16.44;100.00;101287.81;5053563;28;20029;-70
2022/10/22 10:43:41;;;;;;;0.10;0.10;;;;;;;16.55;100.00;101297.63;5035145;28;20028;-69
2022/10/22 10:46:41;;;;;;;0.00;0.00;;;;;;;16.75;100.00;101306.53;5053256;28;20517;-72
2022/10/22 10:49:10;;;;;;;0.10;0.10;;;;;;;16.67;100.00;101300.16;5038647;28;20025;-71
2022/10/22 10:51:59;;;;;;;0.10;0.10;;;;;;;17.01;100.00;101307.72;5035820;28;20028;-71
2022/10/22 10:54:34;;;;;;;0.10;0.10;;;;;;;17.42;100.00;101300.06;5049798;28;20432;-70
2022/10/22 10:57:28;;;;;;;0.03;0.03;;;;;;;17.93;98.55;101283.22;5036810;28;20024;-72
2022/10/22 11:00:03;;;;;;;0.00;0.00;;;;;;;18.43;97.18;101303.47;5055410;28;20029;-72
2022/10/22 11:03:06;;;;;;;0.10;0.10;;;;;;;19.82;90.37;101306.03;5040496;28;20044;-71
2022/10/22 11:05:43;;;;;;;0.10;0.10;;;;;;;19.68;88.20;101297.53;5050726;28;20038;-73
2022/10/22 11:08:12;;;;;;;0.10;0.10;;;;;;;19.36;87.94;101309.19;5038279;28;20028;-74
2022/10/22 11:10:43;;;;;;;0.00;0.00;;;;;;;19.49;86.36;101313.13;5053096;28;20495;-76
2022/10/22 11:13:17;;;;;;;0.10;0.10;;;;;;;19.82;85.94;101301.47;5053146;28;20925;-79
2022/10/22 11:15:46;;;;;;;0.00;0.00;;;;;;;18.86;88.76;101309.84;5039448;28;20456;-69
2022/10/22 11:18:26;;;;;;;0.00;0.00;;;;;;;18.35;91.37;101307.00;5037893;28;20437;-71
2022/10/22 11:21:03;;;;;;;0.10;0.10;;;;;;;17.72;94.10;101302.56;5037871;28;20024;-71
2022/10/22 11:23:35;;;;;;;0.00;0.00;;;;;;;17.97;91.33;101307.19;5031528;28;20029;-71
2022/10/22 11:26:01;;;;;;;0.10;0.10;;;;;;;17.83;94.23;101272.47;5037181;28;20155;-70